Time;durP1;ratioP1;P1;durP2;ratioP2;P2;SDS_P1;SDS_P2;PMS_P1;PMS_P2;Temp;Humidity;BMP_temperature;BMP_pressure;BME280_temperature;BME280_humidity;BME280_pressure;Samples;Min_cycle;Max_cycle;Signal;HPM_P1;HPM_P2
2023/03/13 00:00:42;;;;;;;;;;;;;;;12.52;77.29;99625.78;5012867;28;19924;-59
2023/03/13 00:03:08;;;;;;;;;;;;;;;12.53;76.75;99620.38;5012199;28;20019;-60
2023/03/13 00:05:34;;;;;;;;;;;;;;;12.55;77.38;99620.31;5012129;28;19952;-59
2023/03/13 00:07:59;;;;;;;;;;;;;;;12.57;77.09;99619.28;5012452;28;19932;-59
2023/03/13 00:10:26;;;;;;;;;;;;;;;12.57;77.25;99618.44;5011849;28;19929;-59
2023/03/13 00:12:51;;;;;;;;;;;;;;;12.59;76.98;99606.75;5031035;28;20756;-59
2023/03/13 00:15:16;;;;;;;;;;;;;;;12.60;76.65;99597.78;5032173;28;19944;-60
2023/03/13 00:17:41;;;;;;;;;;;;;;;12.61;76.67;99594.19;5031928;28;19913;-59
2023/03/13 00:20:07;;;;;;;;;;;;;;;12.65;76.14;99594.94;5031874;28;19978;-59
2023/03/13 00:22:33;;;;;;;;;;;;;;;12.65;76.85;99589.59;5032340;28;20260;-58
2023/03/13 00:24:58;;;;;;;;;;;;;;;12.68;76.36;99576.09;5031126;28;19942;-59
2023/03/13 00:27:23;;;;;;;;;;;;;;;12.78;75.69;99572.03;5032005;28;20018;-58
2023/03/13 00:29:49;;;;;;;;;;;;;;;12.79;76.15;99582.66;5032097;28;19917;-58
2023/03/13 00:32:14;;;;;;;;;;;;;;;12.78;75.78;99567.56;5032296;28;19996;-59
2023/03/13 00:34:40;;;;;;;;;;;;;;;12.81;75.24;99564.75;5031147;28;20304;-58
2023/03/13 00:37:05;;;;;;;;;;;;;;;12.86;75.37;99557.41;5031485;28;19967;-58
2023/03/13 00:39:30;;;;;;;;;;;;;;;12.92;74.90;99550.88;5031195;28;19928;-58
2023/03/13 00:41:56;;;;;;;;;;;;;;;12.92;74.43;99551.75;5031929;28;19917;-59
2023/03/13 00:44:21;;;;;;;;;;;;;;;12.91;74.91;99544.69;5032188;28;19927;-58
2023/03/13 00:46:46;;;;;;;;;;;;;;;12.95;74.59;99540.91;5031624;28;19917;-59
2023/03/13 00:49:11;;;;;;;;;;;;;;;12.94;75.12;99544.53;5025283;28;19928;-58
2023/03/13 00:51:37;;;;;;;;;;;;;;;12.92;74.61;99540.19;5026807;28;19957;-58
2023/03/13 00:54:03;;;;;;;;;;;;;;;12.91;75.51;99533.13;5012017;28;20352;-59
2023/03/13 00:56:29;;;;;;;;;;;;;;;12.92;75.51;99530.38;5011920;28;20667;-59
2023/03/13 00:58:54;;;;;;;;;;;;;;;12.91;75.06;99528.66;5021913;28;19939;-59
2023/03/13 01:01:22;;;;;;;;;;;;;;;12.96;74.72;99526.59;5031325;28;19920;-59
2023/03/13 01:03:52;;;;;;;;;;;;;;;12.97;75.00;99524.81;5031252;28;20384;-59
2023/03/13 01:06:19;;;;;;;;;;;;;;;13.00;75.19;99527.31;5031109;28;19924;-58
2023/03/13 01:08:45;;;;;;;;;;;;;;;12.97;75.44;99520.34;5029324;28;19975;-58
2023/03/13 01:11:11;;;;;;;;;;;;;;;12.98;75.74;99523.88;5027177;28;19921;-58
2023/03/13 01:13:37;;;;;;;;;;;;;;;13.00;75.39;99517.50;5030160;28;20419;-58
2023/03/13 01:16:04;;;;;;;;;;;;;;;13.03;74.26;99522.72;5031066;28;19961;-58
2023/03/13 01:18:30;;;;;;;;;;;;;;;13.10;74.74;99510.81;5030442;28;19914;-59
2023/03/13 01:20:55;;;;;;;;;;;;;;;13.10;74.87;99502.78;5030253;28;19974;-59
2023/03/13 01:23:21;;;;;;;;;;;;;;;13.11;75.15;99496.50;5026666;28;19949;-58
2023/03/13 01:25:46;;;;;;;;;;;;;;;13.12;76.14;99494.69;5030546;28;20371;-58
2023/03/13 01:28:11;;;;;;;;;;;;;;;13.08;77.01;99491.31;5031200;28;20344;-58
2023/03/13 01:30:36;;;;;;;;;;;;;;;13.07;77.66;99492.28;5029609;28;19949;-59
2023/03/13 01:33:02;;;;;;;;;;;;;;;13.05;78.92;99491.47;5030118;28;19965;-59
2023/03/13 01:35:27;;;;;;;;;;;;;;;13.00;80.38;99490.81;5030724;28;19927;-59
2023/03/13 01:37:52;;;;;;;;;;;;;;;12.91;81.98;99491.31;5024870;28;19940;-59
2023/03/13 01:40:18;;;;;;;;;;;;;;;12.85;82.40;99488.91;5030731;28;19921;-59
2023/03/13 01:42:54;;;;;;;;;;;;;;;12.79;83.16;99491.91;5030543;28;20000;-58
2023/03/13 01:45:37;;;;;;;;;;;;;;;12.76;83.85;99481.38;5029622;28;19935;-59
2023/03/13 01:48:03;;;;;;;;;;;;;;;12.76;84.55;99484.06;5027221;28;20270;-59
2023/03/13 01:50:29;;;;;;;;;;;;;;;12.73;84.61;99481.53;5021058;28;19943;-59
2023/03/13 01:52:54;;;;;;;;;;;;;;;12.69;86.81;99471.06;5029562;28;19932;-58
2023/03/13 01:55:19;;;;;;;;;;;;;;;12.68;87.17;99472.91;5030565;28;19931;-58
2023/03/13 01:57:49;;;;;;;;;;;;;;;12.60;88.46;99464.38;5029540;28;20336;-59
2023/03/13 02:00:18;;;;;;;;;;;;;;;12.57;89.55;99461.03;5029633;28;19973;-59
2023/03/13 02:02:46;;;;;;;;;;;;;;;12.51;90.36;99458.66;5029783;28;19917;-59
2023/03/13 02:05:12;;;;;;;;;;;;;;;12.52;90.35;99461.22;5030222;28;19974;-59
2023/03/13 02:07:37;;;;;;;;;;;;;;;12.52;91.06;99460.41;5029728;28;19960;-59
2023/03/13 02:10:03;;;;;;;;;;;;;;;12.50;91.80;99457.81;5028898;28;20072;-59
2023/03/13 02:12:30;;;;;;;;;;;;;;;12.50;92.23;99444.47;5029802;28;19959;-59
2023/03/13 02:14:57;;;;;;;;;;;;;;;12.50;92.60;99440.94;5029326;28;19936;-59
2023/03/13 02:17:23;;;;;;;;;;;;;;;12.48;93.46;99433.00;5029709;28;19928;-59
2023/03/13 02:19:50;;;;;;;;;;;;;;;12.46;93.75;99426.88;5012549;28;19936;-59
2023/03/13 02:22:21;;;;;;;;;;;;;;;12.41;94.21;99420.91;5010422;28;20446;-59
2023/03/13 02:25:13;;;;;;;;;;;;;;;12.38;94.52;99421.06;5030054;28;19963;-59
2023/03/13 02:27:38;;;;;;;;;;;;;;;12.36;94.67;99422.94;4999369;28;20030;-58
2023/03/13 02:30:04;;;;;;;;;;;;;;;12.36;95.57;99412.25;5030132;28;20007;-59
2023/03/13 02:32:31;;;;;;;;;;;;;;;12.38;95.06;99407.72;5028981;28;19947;-58
2023/03/13 02:35:00;;;;;;;;;;;;;;;12.40;95.65;99392.50;5029919;28;19923;-59
2023/03/13 02:37:27;;;;;;;;;;;;;;;12.40;96.09;99381.84;5029696;28;20006;-58
2023/03/13 02:39:54;;;;;;;;;;;;;;;12.32;95.98;99377.81;5029394;28;19928;-58
2023/03/13 02:42:20;;;;;;;;;;;;;;;12.39;96.13;99393.44;5017602;28;19936;-58
2023/03/13 02:44:46;;;;;;;;;;;;;;;12.39;96.88;99374.75;5009780;28;19928;-59
2023/03/13 02:47:16;;;;;;;;;;;;;;;12.39;97.31;99369.44;5009855;28;20458;-59
2023/03/13 02:49:41;;;;;;;;;;;;;;;12.43;97.05;99371.03;5012647;28;19971;-59
2023/03/13 02:52:33;;;;;;;;;;;;;;;12.43;97.35;99360.34;5028842;28;19993;-60
2023/03/13 02:55:00;;;;;;;;;;;;;;;12.39;98.28;99372.09;5025216;28;19992;-59
2023/03/13 02:57:26;;;;;;;;;;;;;;;12.38;98.99;99372.19;5028958;28;20045;-59
2023/03/13 02:59:51;;;;;;;;;;;;;;;12.42;98.87;99374.59;5028270;28;19967;-59
2023/03/13 03:02:16;;;;;;;;;;;;;;;12.44;98.59;99377.19;5014269;28;19917;-59
2023/03/13 03:04:42;;;;;;;;;;;;;;;12.43;98.88;99381.69;5019838;28;19917;-59
2023/03/13 03:07:07;;;;;;;;;;;;;;;12.36;99.79;99374.91;5011648;28;19951;-59
2023/03/13 03:09:32;;;;;;;;;;;;;;;12.40;99.74;99363.19;5023622;28;19963;-58
2023/03/13 03:11:57;;;;;;;;;;;;;;;12.43;100.00;99365.69;5029362;28;19966;-59
2023/03/13 03:14:23;;;;;;;;;;;;;;;12.44;100.00;99364.72;5028609;28;19951;-59
2023/03/13 03:16:48;;;;;;;;;;;;;;;12.42;100.00;99363.09;5026199;28;19951;-59
2023/03/13 03:19:13;;;;;;;;;;;;;;;12.45;100.00;99363.81;5029011;28;19917;-58
2023/03/13 03:21:39;;;;;;;;;;;;;;;12.49;100.00;99360.03;5029422;28;19947;-58
2023/03/13 03:24:04;;;;;;;;;;;;;;;12.54;99.54;99362.44;5029527;28;19932;-59
2023/03/13 03:26:30;;;;;;;;;;;;;;;12.59;98.90;99361.28;5027144;28;19938;-59
2023/03/13 03:28:55;;;;;;;;;;;;;;;12.67;98.19;99368.88;5027393;28;19951;-58
2023/03/13 03:31:20;;;;;;;;;;;;;;;12.70;97.57;99361.59;5013283;28;19985;-58
2023/03/13 03:33:46;;;;;;;;;;;;;;;12.75;96.93;99351.53;5011665;28;20045;-59
2023/03/13 03:36:13;;;;;;;;;;;;;;;12.80;96.00;99356.66;5029198;28;20438;-59
2023/03/13 03:38:38;;;;;;;;;;;;;;;12.87;94.86;99350.91;5032773;28;19935;-60
2023/03/13 03:41:04;;;;;;;;;;;;;;;12.94;93.14;99351.47;5032242;28;20004;-59
2023/03/13 03:43:29;;;;;;;;;;;;;;;12.99;93.03;99366.28;5032781;28;19913;-59
2023/03/13 03:45:54;;;;;;;;;;;;;;;13.08;92.00;99360.50;5032929;28;19971;-58
2023/03/13 03:48:20;;;;;;;;;;;;;;;13.13;91.59;99363.78;5027222;28;19939;-59
2023/03/13 03:50:45;;;;;;;;;;;;;;;13.05;91.56;99358.00;5019367;28;20279;-59
2023/03/13 03:53:10;;;;;;;;;;;;;;;13.05;91.42;99355.31;5031566;28;19913;-59
2023/03/13 03:55:36;;;;;;;;;;;;;;;13.02;91.51;99342.13;5032806;28;19947;-59
2023/03/13 03:58:01;;;;;;;;;;;;;;;13.06;91.53;99351.69;5032521;28;19973;-58
2023/03/13 04:00:26;;;;;;;;;;;;;;;13.09;91.61;99351.56;5031654;28;20398;-60
2023/03/13 04:02:52;;;;;;;;;;;;;;;13.10;91.61;99350.59;5032309;28;19917;-59
2023/03/13 04:05:17;;;;;;;;;;;;;;;13.09;91.48;99346.22;5024853;28;20289;-59
2023/03/13 04:07:42;;;;;;;;;;;;;;;13.14;91.37;99337.94;5012529;28;19953;-59
2023/03/13 04:10:08;;;;;;;;;;;;;;;13.17;90.62;99327.97;5025931;28;19929;-59
2023/03/13 04:12:33;;;;;;;;;;;;;;;13.18;90.57;99324.34;5031841;28;19925;-59
2023/03/13 04:14:58;;;;;;;;;;;;;;;13.17;90.77;99322.63;5031950;28;19972;-59
2023/03/13 04:17:24;;;;;;;;;;;;;;;13.14;91.29;99322.81;5031270;28;20041;-59
2023/03/13 04:19:49;;;;;;;;;;;;;;;13.20;90.97;99318.91;5014703;28;19935;-59
2023/03/13 04:22:14;;;;;;;;;;;;;;;13.21;90.90;99326.00;5021235;28;19976;-59
2023/03/13 04:24:39;;;;;;;;;;;;;;;13.20;91.32;99330.47;5032214;28;19977;-58
2023/03/13 04:27:05;;;;;;;;;;;;;;;13.21;91.64;99326.84;5032342;28;19917;-59
2023/03/13 04:29:31;;;;;;;;;;;;;;;13.20;91.88;99322.47;5031675;28;19917;-58
2023/03/13 04:31:56;;;;;;;;;;;;;;;13.21;92.16;99326.84;5030512;28;19931;-59
2023/03/13 04:34:21;;;;;;;;;;;;;;;13.20;92.56;99324.25;5031635;28;19950;-59
2023/03/13 04:36:47;;;;;;;;;;;;;;;13.20;92.80;99317.13;5030540;28;19931;-59
2023/03/13 04:39:12;;;;;;;;;;;;;;;13.20;92.81;99316.25;5031654;28;19916;-59
2023/03/13 04:41:37;;;;;;;;;;;;;;;13.24;93.15;99313.31;5013861;28;19992;-59
2023/03/13 04:44:03;;;;;;;;;;;;;;;13.22;93.36;99314.38;5030636;28;19921;-58
2023/03/13 04:46:28;;;;;;;;;;;;;;;13.28;93.71;99302.50;5031574;28;19939;-58
2023/03/13 04:48:53;;;;;;;;;;;;;;;13.31;93.36;99305.00;5021825;28;19928;-58
2023/03/13 04:51:18;;;;;;;;;;;;;;;13.29;94.04;99309.53;5028978;28;19999;-58
2023/03/13 04:53:44;;;;;;;;;;;;;;;13.31;94.99;99313.00;5026837;28;19932;-59
2023/03/13 04:56:10;;;;;;;;;;;;;;;13.34;94.87;99331.53;5011810;28;19948;-58
2023/03/13 04:58:36;;;;;;;;;;;;;;;13.31;96.24;99321.00;5023149;28;20016;-58
2023/03/13 05:01:01;;;;;;;;;;;;;;;13.24;97.54;99337.34;5018057;28;19996;-58
2023/03/13 05:03:26;;;;;;;;;;;;;;;13.24;99.09;99344.53;4996239;28;19921;-59
2023/03/13 05:05:51;;;;;;;;;;;;;;;13.21;99.70;99340.19;5030857;28;19917;-59
2023/03/13 05:08:17;;;;;;;;;;;;;;;13.22;99.77;99341.06;5030330;28;19917;-58
2023/03/13 05:10:43;;;;;;;;;;;;;;;13.18;100.00;99329.69;5012481;28;20386;-59
2023/03/13 05:13:08;;;;;;;;;;;;;;;13.20;100.00;99337.59;5028986;28;19967;-58
2023/03/13 05:15:33;;;;;;;;;;;;;;;13.17;100.00;99329.78;5029723;28;20515;-58
2023/03/13 05:17:59;;;;;;;;;;;;;;;13.19;100.00;99325.22;5028727;28;20016;-58
2023/03/13 05:20:24;;;;;;;;;;;;;;;13.21;100.00;99329.50;5029885;28;20285;-59
2023/03/13 05:22:49;;;;;;;;;;;;;;;13.21;100.00;99320.66;5026332;28;20003;-59
2023/03/13 05:25:14;;;;;;;;;;;;;;;13.26;100.00;99315.06;5031064;28;19979;-58
2023/03/13 05:27:40;;;;;;;;;;;;;;;13.24;100.00;99310.66;5031051;28;19963;-58
2023/03/13 05:30:05;;;;;;;;;;;;;;;13.26;100.00;99320.41;5030621;28;19963;-58
2023/03/13 05:32:31;;;;;;;;;;;;;;;13.30;100.00;99337.97;5029974;28;19939;-59
2023/03/13 05:34:56;;;;;;;;;;;;;;;13.30;100.00;99329.97;5028501;28;19917;-59
2023/03/13 05:37:21;;;;;;;;;;;;;;;13.30;100.00;99332.63;5014302;28;19921;-58
2023/03/13 05:39:46;;;;;;;;;;;;;;;13.30;100.00;99329.97;5030449;28;20399;-58
2023/03/13 05:42:12;;;;;;;;;;;;;;;13.33;100.00;99335.16;5030666;28;19925;-58
2023/03/13 05:44:37;;;;;;;;;;;;;;;13.33;100.00;99337.84;5029745;28;19921;-59
2023/03/13 05:47:02;;;;;;;;;;;;;;;13.34;100.00;99340.41;5028927;28;20362;-59
2023/03/13 05:49:27;;;;;;;;;;;;;;;13.35;100.00;99326.09;5018224;28;19997;-58
2023/03/13 05:51:53;;;;;;;;;;;;;;;13.36;100.00;99343.00;5030308;28;19931;-58
2023/03/13 05:54:18;;;;;;;;;;;;;;;13.37;100.00;99340.25;5030400;28;20304;-59
2023/03/13 05:56:43;;;;;;;;;;;;;;;13.36;100.00;99343.84;5028853;28;19925;-58
2023/03/13 05:59:09;;;;;;;;;;;;;;;13.38;100.00;99354.47;5030185;28;20350;-58
2023/03/13 06:01:34;;;;;;;;;;;;;;;13.36;100.00;99357.19;5029255;28;19959;-58
2023/03/13 06:03:59;;;;;;;;;;;;;;;13.34;100.00;99350.22;5030371;28;20357;-57
2023/03/13 06:06:24;;;;;;;;;;;;;;;13.34;100.00;99344.88;5028057;28;20127;-58
2023/03/13 06:08:51;;;;;;;;;;;;;;;13.35;100.00;99347.47;5030341;28;19916;-59
2023/03/13 06:11:16;;;;;;;;;;;;;;;13.32;100.00;99344.09;5008836;28;19966;-58
2023/03/13 06:13:41;;;;;;;;;;;;;;;13.34;100.00;99342.22;5009755;28;19921;-58
2023/03/13 06:16:07;;;;;;;;;;;;;;;13.35;100.00;99341.25;5010059;28;19965;-58
2023/03/13 06:18:32;;;;;;;;;;;;;;;13.39;100.00;99343.69;5006288;28;20070;-58
2023/03/13 06:20:58;;;;;;;;;;;;;;;13.41;100.00;99340.94;5010169;28;20019;-59
2023/03/13 06:23:23;;;;;;;;;;;;;;;13.42;100.00;99342.66;5009433;28;19921;-58
2023/03/13 06:25:49;;;;;;;;;;;;;;;13.42;100.00;99350.66;5009170;28;19939;-58
2023/03/13 06:28:15;;;;;;;;;;;;;;;13.42;100.00;99348.88;5010256;28;19928;-59
2023/03/13 06:30:40;;;;;;;;;;;;;;;13.40;100.00;99340.06;5009261;28;20009;-59
2023/03/13 06:33:05;;;;;;;;;;;;;;;13.39;100.00;99345.50;5010057;28;20022;-58
2023/03/13 06:35:31;;;;;;;;;;;;;;;13.38;100.00;99347.28;5009840;28;19973;-58
2023/03/13 06:37:56;;;;;;;;;;;;;;;13.41;100.00;99335.59;5009058;28;19922;-59
2023/03/13 06:40:21;;;;;;;;;;;;;;;13.42;100.00;99342.66;5009133;28;19955;-59
2023/03/13 06:42:47;;;;;;;;;;;;;;;13.45;100.00;99347.81;5008565;28;19917;-59
2023/03/13 06:45:12;;;;;;;;;;;;;;;13.46;100.00;99349.56;5009142;28;20054;-59
2023/03/13 06:47:37;;;;;;;;;;;;;;;13.49;100.00;99349.41;5009548;28;19945;-59
2023/03/13 06:50:02;;;;;;;;;;;;;;;13.56;100.00;99356.97;5008579;28;19943;-59
2023/03/13 06:52:28;;;;;;;;;;;;;;;13.57;100.00;99347.16;5009511;28;19920;-59
2023/03/13 06:54:53;;;;;;;;;;;;;;;13.64;100.00;99338.69;5009867;28;19917;-60
2023/03/13 06:57:18;;;;;;;;;;;;;;;13.70;100.00;99345.53;5010229;28;19952;-59
2023/03/13 06:59:43;;;;;;;;;;;;;;;13.72;100.00;99330.28;5000610;28;19918;-61
2023/03/13 07:02:10;;;;;;;;;;;;;;;13.71;100.00;99328.53;4990349;28;20046;-60
2023/03/13 07:04:35;;;;;;;;;;;;;;;13.78;100.00;99337.94;5001202;28;19932;-60
2023/03/13 07:07:01;;;;;;;;;;;;;;;13.80;100.00;99330.69;5007226;28;19947;-60
2023/03/13 07:09:26;;;;;;;;;;;;;;;13.83;100.00;99322.50;5012398;28;19930;-59
2023/03/13 07:11:51;;;;;;;;;;;;;;;13.85;100.00;99315.25;5022635;28;19925;-60
2023/03/13 07:14:17;;;;;;;;;;;;;;;13.87;99.91;99302.69;5032323;28;19967;-60
2023/03/13 07:16:42;;;;;;;;;;;;;;;13.88;99.89;99277.66;5030824;28;19925;-60
2023/03/13 07:19:07;;;;;;;;;;;;;;;13.82;100.00;99272.69;5014394;28;20438;-59
2023/03/13 07:21:33;;;;;;;;;;;;;;;13.93;100.00;99264.88;5031648;28;19925;-60
2023/03/13 07:23:58;;;;;;;;;;;;;;;13.93;99.60;99268.44;5032956;28;19923;-59
2023/03/13 07:26:23;;;;;;;;;;;;;;;13.95;99.54;99273.69;5033353;28;19917;-60
2023/03/13 07:28:48;;;;;;;;;;;;;;;14.02;98.76;99269.72;5030677;28;19921;-60
2023/03/13 07:31:18;;;;;;;;;;;;;;;14.15;98.88;99257.34;5022728;28;20433;-60
2023/03/13 07:33:44;;;;;;;;;;;;;;;14.18;98.51;99251.81;5017601;28;19921;-60
2023/03/13 07:36:10;;;;;;;;;;;;;;;14.35;97.29;99241.84;5024180;28;19996;-60
2023/03/13 07:38:35;;;;;;;;;;;;;;;14.99;94.93;99251.31;5013326;28;19922;-59
2023/03/13 07:41:00;;;;;;;;;;;;;;;15.38;89.92;99249.63;5028281;28;19921;-59
2023/03/13 07:43:26;;;;;;;;;;;;;;;15.07;90.19;99257.91;5032972;28;20001;-59
2023/03/13 07:45:55;;;;;;;;;;;;;;;14.99;90.70;99254.81;5030719;28;20035;-59
2023/03/13 07:48:21;;;;;;;;;;;;;;;14.90;92.62;99247.38;5033187;28;19917;-59
2023/03/13 07:50:47;;;;;;;;;;;;;;;14.95;91.91;99245.28;5032572;28;19917;-61
2023/03/13 07:53:12;;;;;;;;;;;;;;;15.06;92.35;99253.47;5031720;28;19921;-60
2023/03/13 07:55:37;;;;;;;;;;;;;;;15.10;91.07;99257.72;5031649;28;19992;-60
2023/03/13 07:58:02;;;;;;;;;;;;;;;15.09;91.24;99247.94;5030619;28;19956;-60
2023/03/13 08:00:28;;;;;;;;;;;;;;;15.07;91.96;99260.59;5031520;28;19917;-60
2023/03/13 08:02:53;;;;;;;;;;;;;;;15.13;91.88;99259.31;5031963;28;20012;-59
2023/03/13 08:05:18;;;;;;;;;;;;;;;15.18;90.52;99271.47;5031617;28;19928;-59
2023/03/13 08:07:44;;;;;;;;;;;;;;;15.20;90.80;99274.06;5032406;28;20548;-59
2023/03/13 08:10:09;;;;;;;;;;;;;;;15.14;91.49;99272.59;5031576;28;19928;-61
2023/03/13 08:12:34;;;;;;;;;;;;;;;15.04;91.28;99276.81;5032235;28;20017;-60
2023/03/13 08:15:00;;;;;;;;;;;;;;;14.95;93.08;99264.00;5032474;28;19967;-59
2023/03/13 08:17:27;;;;;;;;;;;;;;;14.95;92.73;99269.38;5030172;28;20343;-59
2023/03/13 08:19:53;;;;;;;;;;;;;;;14.93;93.39;99265.91;5029549;28;20034;-60
2023/03/13 08:22:18;;;;;;;;;;;;;;;14.88;93.25;99262.66;5032012;28;19917;-60
2023/03/13 08:24:43;;;;;;;;;;;;;;;14.90;92.93;99266.13;5031542;28;19917;-59
2023/03/13 08:27:08;;;;;;;;;;;;;;;14.98;92.77;99242.41;5031921;28;20522;-59
2023/03/13 08:29:34;;;;;;;;;;;;;;;14.96;93.20;99249.66;5031993;28;19949;-60
2023/03/13 08:31:59;;;;;;;;;;;;;;;15.10;92.97;99247.00;5031971;28;19913;-60
2023/03/13 08:34:24;;;;;;;;;;;;;;;15.25;92.00;99245.16;5030147;28;19974;-60
2023/03/13 08:36:51;;;;;;;;;;;;;;;15.31;91.44;99240.25;5032025;28;19990;-60
2023/03/13 08:39:17;;;;;;;;;;;;;;;15.48;91.19;99240.09;5030980;28;20404;-60
2023/03/13 08:41:43;;;;;;;;;;;;;;;15.76;90.12;99209.63;5032029;28;20344;-59
2023/03/13 08:44:12;;;;;;;;;;;;;;;16.19;88.76;99218.34;5031812;28;19916;-60
2023/03/13 08:46:38;;;;;;;;;;;;;;;17.39;84.23;99209.75;5031621;28;19920;-57
2023/03/13 08:49:05;;;;;;;;;;;;;;;18.16;77.06;99206.63;5031106;28;19920;-59
2023/03/13 08:51:30;;;;;;;;;;;;;;;18.45;74.74;99212.50;5031865;28;19921;-59
2023/03/13 08:53:55;;;;;;;;;;;;;;;18.70;73.81;99210.47;5030699;28;20451;-59
2023/03/13 08:56:23;;;;;;;;;;;;;;;19.24;71.05;99200.69;5031095;28;19956;-58
2023/03/13 08:58:52;;;;;;;;;;;;;;;19.83;67.57;99185.03;5030635;28;19917;-59
2023/03/13 09:01:18;;;;;;;;;;;;;;;19.72;67.13;99185.06;5029375;28;20571;-60
2023/03/13 09:03:43;;;;;;;;;;;;;;;19.38;67.83;99188.81;5013850;28;19956;-59
2023/03/13 09:06:09;;;;;;;;;;;;;;;18.82;69.60;99189.78;5028191;28;19920;-59
2023/03/13 09:08:34;;;;;;;;;;;;;;;18.17;72.46;99193.03;5030573;28;20329;-59
2023/03/13 09:11:20;;;;;;;;;;;;;;;17.82;74.33;99189.50;5027836;28;20047;-58
2023/03/13 09:13:46;;;;;;;;;;;;;;;17.49;76.09;99183.94;5030456;28;20008;-58
2023/03/13 09:16:22;;;;;;;;;;;;;;;17.50;77.34;99180.25;5031568;28;20293;-59
2023/03/13 09:18:48;;;;;;;;;;;;;;;17.39;77.74;99172.09;5023887;28;20031;-58
2023/03/13 09:21:15;;;;;;;;;;;;;;;17.34;78.10;99168.88;5031008;28;20341;-59
2023/03/13 09:23:40;;;;;;;;;;;;;;;17.31;77.68;99162.88;5030999;28;20385;-59
2023/03/13 09:26:06;;;;;;;;;;;;;;;17.26;77.13;99157.84;5029780;28;19928;-58
2023/03/13 09:28:32;;;;;;;;;;;;;;;17.50;77.83;99163.25;5031080;28;19928;-59
2023/03/13 09:31:06;;;;;;;;;;;;;;;17.60;76.72;99151.72;5029092;28;19932;-59
2023/03/13 09:33:32;;;;;;;;;;;;;;;17.49;75.79;99151.66;5025852;28;19917;-60
2023/03/13 09:35:57;;;;;;;;;;;;;;;17.44;75.64;99140.34;5013455;28;19971;-60
2023/03/13 09:38:22;;;;;;;;;;;;;;;17.59;74.86;99147.31;5028658;28;19921;-59
2023/03/13 09:40:48;;;;;;;;;;;;;;;17.72;75.18;99148.13;5030919;28;20018;-59
2023/03/13 09:43:26;;;;;;;;;;;;;;;17.68;74.82;99141.25;5030097;28;19917;-60
2023/03/13 09:45:53;;;;;;;;;;;;;;;17.61;73.88;99137.28;5028768;28;19927;-59
2023/03/13 09:48:28;;;;;;;;;;;;;;;17.64;74.11;99145.16;5024266;28;19945;-59
2023/03/13 09:51:00;;;;;;;;;;;;;;;17.77;73.93;99127.09;4992198;28;19919;-59
2023/03/13 09:53:41;;;;;;;;;;;;;;;17.78;73.75;99130.63;5057469;27;1996678;-61
2023/03/13 09:56:12;;;;;;;;;;;;;;;17.86;74.76;99123.69;5124424;28;19993;-60
2023/03/13 09:58:40;;;;;;;;;;;;;;;17.97;73.98;99107.59;5127842;28;19922;-61
2023/03/13 10:01:08;;;;;;;;;;;;;;;18.02;71.73;99069.56;5127903;28;19912;-60
2023/03/13 10:03:50;;;;;;;;;;;;;;;18.70;70.89;99091.94;5124282;28;19959;-60
2023/03/13 10:06:19;;;;;;;;;;;;;;;19.39;68.49;99096.13;5107595;28;19920;-59
2023/03/13 10:08:44;;;;;;;;;;;;;;;19.78;66.19;99092.81;5105863;28;19916;-60
2023/03/13 10:11:11;;;;;;;;;;;;;;;20.22;64.15;99080.91;5107359;28;19923;-61
2023/03/13 10:13:52;;;;;;;;;;;;;;;20.12;62.29;99078.13;5107138;28;19962;-59
2023/03/13 10:16:23;;;;;;;;;;;;;;;20.30;63.44;99078.41;5101010;28;19920;-60
2023/03/13 10:18:52;;;;;;;;;;;;;;;20.33;61.77;99081.69;5096023;28;19916;-60
2023/03/13 10:21:22;;;;;;;;;;;;;;;20.01;62.30;99075.50;5107139;28;19969;-59
2023/03/13 10:23:54;;;;;;;;;;;;;;;19.72;65.71;99085.22;5106190;28;19919;-60
2023/03/13 10:26:31;;;;;;;;;;;;;;;19.62;64.82;99084.28;5084540;28;20030;-60
2023/03/13 10:28:59;;;;;;;;;;;;;;;19.25;66.00;99088.31;5085699;28;19912;-59
2023/03/13 10:31:25;;;;;;;;;;;;;;;19.00;67.58;99085.91;5103285;28;20323;-59
2023/03/13 10:33:50;;;;;;;;;;;;;;;18.95;68.78;99074.63;5106327;28;19916;-60
2023/03/13 10:36:15;;;;;;;;;;;;;;;19.36;68.16;99066.72;5105474;28;19920;-60
2023/03/13 10:38:53;;;;;;;;;;;;;;;20.20;64.56;99064.84;5100442;28;19916;-60
2023/03/13 10:41:21;;;;;;;;;;;;;;;21.19;59.11;99059.56;5087558;28;20011;-60
2023/03/13 10:43:54;;;;;;;;;;;;;;;21.72;54.89;99048.25;5104251;28;19935;-60
2023/03/13 10:46:26;;;;;;;;;;;;;;;21.82;55.21;99040.13;5106680;28;20070;-60
2023/03/13 10:48:56;;;;;;;;;;;;;;;22.39;54.84;99037.28;5095622;28;19927;-61
2023/03/13 10:51:22;;;;;;;;;;;;;;;23.17;51.62;99029.53;5086189;28;19919;-59
2023/03/13 10:53:47;;;;;;;;;;;;;;;23.61;50.04;99022.38;5090545;28;19966;-60
2023/03/13 10:56:14;;;;;;;;;;;;;;;24.05;48.87;99020.56;5105753;28;20383;-60
2023/03/13 10:58:44;;;;;;;;;;;;;;;23.90;49.17;99016.69;5106127;28;19916;-60
2023/03/13 11:01:27;;;;;;;;;;;;;;;23.62;49.18;99001.50;5103851;28;20680;-59
2023/03/13 11:03:54;;;;;;;;;;;;;;;23.08;50.18;99005.19;5093150;28;19916;-60
2023/03/13 11:06:24;;;;;;;;;;;;;;;22.47;51.71;99009.47;5083894;28;19920;-59
2023/03/13 11:08:50;;;;;;;;;;;;;;;22.14;52.53;99000.88;5091116;28;19923;-60
2023/03/13 11:11:17;;;;;;;;;;;;;;;21.61;54.04;99009.63;5091052;28;19962;-60
2023/03/13 11:13:43;;;;;;;;;;;;;;;21.68;54.32;99002.66;5091285;28;19924;-59
2023/03/13 11:16:08;;;;;;;;;;;;;;;22.12;53.90;98994.75;5090483;28;19920;-60
2023/03/13 11:18:46;;;;;;;;;;;;;;;22.35;53.28;98979.00;5077710;28;19920;-60
2023/03/13 11:21:16;;;;;;;;;;;;;;;23.28;52.08;98983.22;5072229;28;19954;-60
2023/03/13 11:23:44;;;;;;;;;;;;;;;24.16;48.80;98964.09;5076274;28;19931;-61
2023/03/13 11:26:25;;;;;;;;;;;;;;;24.41;48.10;98962.34;5088085;28;20002;-60
2023/03/13 11:29:01;;;;;;;;;;;;;;;24.76;46.82;98961.34;5091633;28;20004;-61
2023/03/13 11:31:34;;;;;;;;;;;;;;;24.85;47.39;98960.34;5091329;28;20322;-61
2023/03/13 11:34:18;;;;;;;;;;;;;;;25.10;46.70;98949.38;5079040;28;19931;-60
2023/03/13 11:37:01;;;;;;;;;;;;;;;25.47;46.65;98947.06;5070986;28;20417;-60
2023/03/13 11:39:41;;;;;;;;;;;;;;;25.85;46.17;98932.75;5089396;28;19920;-60
2023/03/13 11:42:16;;;;;;;;;;;;;;;25.23;45.51;98927.09;5091783;28;19931;-60
2023/03/13 11:44:41;;;;;;;;;;;;;;;24.99;46.57;98918.91;5089092;28;19916;-60
2023/03/13 11:47:19;;;;;;;;;;;;;;;24.98;47.30;98918.03;5076896;28;20303;-60
2023/03/13 11:49:47;;;;;;;;;;;;;;;24.79;47.00;98907.47;5091695;28;20345;-60
2023/03/13 11:52:21;;;;;;;;;;;;;;;24.54;47.82;98905.66;5091585;28;19931;-60
2023/03/13 11:55:04;;;;;;;;;;;;;;;24.63;47.49;98901.94;5090272;28;19950;-60
2023/03/13 11:57:31;;;;;;;;;;;;;;;24.49;46.77;98884.41;5089411;28;19943;-61
2023/03/13 12:00:16;;;;;;;;;;;;;;;24.55;46.98;98880.16;5090010;28;20003;-60
2023/03/13 12:02:47;;;;;;;;;;;;;;;24.91;46.94;98862.59;5089112;28;19939;-62
2023/03/13 12:05:14;;;;;;;;;;;;;;;24.92;46.81;98855.28;5079870;28;19997;-61
2023/03/13 12:07:47;;;;;;;;;;;;;;;25.36;45.46;98835.75;5069858;28;20483;-61
2023/03/13 12:10:17;;;;;;;;;;;;;;;25.85;44.48;98836.50;5071104;28;19916;-61
2023/03/13 12:12:48;;;;;;;;;;;;;;;25.63;45.74;98838.09;5079640;28;20053;-61
2023/03/13 12:15:13;;;;;;;;;;;;;;;26.09;44.73;98836.47;5090472;28;19916;-60
2023/03/13 12:17:54;;;;;;;;;;;;;;;25.83;44.68;98816.78;5089493;28;19922;-60
2023/03/13 12:20:19;;;;;;;;;;;;;;;25.60;45.86;98819.38;5089523;28;20329;-60
2023/03/13 12:22:57;;;;;;;;;;;;;;;25.37;44.70;98815.66;5090916;28;20017;-61
2023/03/13 12:25:23;;;;;;;;;;;;;;;25.13;45.19;98804.78;5089883;28;20336;-60
2023/03/13 12:27:54;;;;;;;;;;;;;;;25.38;44.40;98801.06;5091093;28;19916;-60
2023/03/13 12:30:25;;;;;;;;;;;;;;;25.01;46.22;98795.25;5090930;28;20338;-60
2023/03/13 12:33:00;;;;;;;;;;;;;;;24.48;45.38;98795.69;5091108;28;20442;-61
2023/03/13 12:35:33;;;;;;;;;;;;;;;24.30;47.15;98792.22;5089524;28;19927;-60
2023/03/13 12:37:58;;;;;;;;;;;;;;;24.34;47.09;98787.31;5082727;28;20295;-61
2023/03/13 12:40:40;;;;;;;;;;;;;;;24.41;46.31;98782.94;5070420;28;19924;-60
2023/03/13 12:43:24;;;;;;;;;;;;;;;24.45;46.03;98773.41;5070512;28;19916;-61
2023/03/13 12:46:03;;;;;;;;;;;;;;;24.58;45.87;98752.88;5084771;28;19920;-60